Time;durP1;ratioP1;P1;durP2;ratioP2;P2;SDS_P1;SDS_P2;PMS_P1;PMS_P2;Temp;Humidity;BMP_temperature;BMP_pressure;BME280_temperature;BME280_humidity;BME280_pressure;Samples;Min_cycle;Max_cycle;Signal;HPM_P1;HPM_P2
2021/09/13 00:02:10;;;;;;;7.18;3.45;;;;;;;15.74;53.99;101451.06;8002313;28;20040;-68
2021/09/13 00:06:03;;;;;;;6.88;3.53;;;;;;;15.70;54.03;101446.97;8009131;28;20086;-68
2021/09/13 00:09:53;;;;;;;5.78;4.10;;;;;;;15.65;54.07;101447.31;8013247;28;20436;-68
2021/09/13 00:13:45;;;;;;;4.22;3.15;;;;;;;15.63;54.01;101457.19;8010140;28;20045;-68
2021/09/13 00:17:36;;;;;;;4.35;2.83;;;;;;;15.59;54.05;101450.44;8025379;28;20441;-68
2021/09/13 00:21:28;;;;;;;6.28;3.67;;;;;;;15.56;54.20;101448.03;8015321;28;20036;-68
2021/09/13 00:25:18;;;;;;;4.53;2.97;;;;;;;15.51;54.12;101441.41;8033940;28;20140;-69
2021/09/13 00:29:09;;;;;;;5.18;2.83;;;;;;;15.50;54.14;101445.03;8033503;28;20477;-68
2021/09/13 00:33:01;;;;;;;4.63;2.60;;;;;;;15.48;54.37;101441.66;8026597;28;20036;-69
2021/09/13 00:36:52;;;;;;;4.80;2.70;;;;;;;15.44;54.21;101446.34;8030398;28;20032;-68
2021/09/13 00:40:44;;;;;;;5.57;3.00;;;;;;;15.40;54.24;101447.53;8010112;28;20064;-68
2021/09/13 00:44:35;;;;;;;3.63;2.75;;;;;;;15.36;54.19;101448.75;8025008;28;20060;-68
2021/09/13 00:48:26;;;;;;;4.40;3.20;;;;;;;15.36;54.29;101447.88;8018985;28;20040;-68
2021/09/13 00:52:18;;;;;;;5.38;2.75;;;;;;;15.33;54.48;101443.69;8015732;28;20032;-68
2021/09/13 00:56:08;;;;;;;3.58;2.33;;;;;;;15.34;54.41;101444.50;8008602;28;20037;-68
2021/09/13 00:59:59;;;;;;;3.85;3.00;;;;;;;15.33;54.59;101442.84;8025900;28;20029;-68
2021/09/13 01:03:50;;;;;;;5.63;2.35;;;;;;;15.34;54.62;101447.16;8016372;28;20028;-68
2021/09/13 01:07:41;;;;;;;6.22;2.90;;;;;;;15.31;54.75;101434.16;8018466;28;20037;-69
2021/09/13 01:11:32;;;;;;;4.05;2.88;;;;;;;15.35;54.76;101447.03;8022522;28;20078;-68
2021/09/13 01:15:22;;;;;;;4.30;3.03;;;;;;;15.37;54.67;101441.63;8024252;28;20113;-68
2021/09/13 01:19:14;;;;;;;5.88;2.80;;;;;;;15.39;54.86;101434.41;8022851;28;20033;-68
2021/09/13 01:23:34;;;;;;;7.25;3.10;;;;;;;15.38;54.82;101427.41;8018058;28;20402;-68
2021/09/13 01:27:32;;;;;;;3.60;2.63;;;;;;;15.37;54.92;101428.41;8010890;28;20049;-69
2021/09/13 01:31:22;;;;;;;3.38;2.20;;;;;;;15.36;54.86;101422.25;8023475;28;20039;-68
2021/09/13 01:35:13;;;;;;;3.25;2.63;;;;;;;15.32;54.79;101423.47;7998640;28;20028;-68
2021/09/13 01:39:04;;;;;;;5.63;2.97;;;;;;;15.31;54.89;101420.94;8029728;28;20024;-68
2021/09/13 01:42:59;;;;;;;6.90;3.22;;;;;;;15.27;54.54;101422.94;8018119;28;20054;-68
2021/09/13 01:46:51;;;;;;;6.53;3.17;;;;;;;15.23;54.67;101426.78;8008685;28;20025;-68
2021/09/13 01:50:42;;;;;;;3.97;3.00;;;;;;;15.12;54.58;101419.69;8021286;28;20416;-68
2021/09/13 01:54:32;;;;;;;3.13;2.42;;;;;;;15.12;54.73;101422.31;8024710;28;20033;-68
2021/09/13 01:58:24;;;;;;;4.93;2.67;;;;;;;15.10;54.75;101418.94;8022482;28;20037;-68
2021/09/13 02:02:15;;;;;;;3.22;2.60;;;;;;;15.07;54.46;101420.97;8015875;28;20029;-68
2021/09/13 02:06:10;;;;;;;4.15;2.75;;;;;;;15.05;54.91;101430.81;8016211;28;20143;-68
2021/09/13 02:10:00;;;;;;;5.97;3.00;;;;;;;15.02;54.94;101439.00;8006451;28;20448;-68
2021/09/13 02:13:51;;;;;;;4.25;2.75;;;;;;;14.98;54.92;101435.75;8005114;28;20128;-68
2021/09/13 02:17:44;;;;;;;4.22;2.95;;;;;;;15.00;54.83;101438.28;7997460;28;20114;-68
2021/09/13 02:21:36;;;;;;;4.28;2.40;;;;;;;14.99;54.93;101426.88;8017077;28;20597;-69
2021/09/13 02:25:27;;;;;;;4.53;2.25;;;;;;;14.91;55.05;101412.53;8018198;28;20040;-68
2021/09/13 02:29:18;;;;;;;4.35;3.17;;;;;;;14.96;55.04;101428.91;8016450;28;20128;-68
2021/09/13 02:33:10;;;;;;;5.95;2.65;;;;;;;14.98;54.99;101426.97;8022397;28;20166;-68
2021/09/13 02:37:00;;;;;;;3.45;2.72;;;;;;;14.93;55.24;101426.47;8016024;28;20509;-68
2021/09/13 02:40:53;;;;;;;4.88;2.92;;;;;;;14.93;55.24;101429.09;8029653;28;20036;-69
2021/09/13 02:44:44;;;;;;;4.03;2.45;;;;;;;14.91;55.20;101428.41;8021139;28;20489;-68
2021/09/13 02:48:35;;;;;;;3.47;2.75;;;;;;;14.87;55.47;101421.66;8019034;28;20041;-68
2021/09/13 02:52:29;;;;;;;4.20;3.30;;;;;;;14.83;55.03;101426.34;8020787;28;20058;-68
2021/09/13 02:56:20;;;;;;;7.13;3.72;;;;;;;14.78;55.10;101429.31;8020994;28;20155;-68
2021/09/13 03:00:11;;;;;;;3.53;2.80;;;;;;;14.75;55.10;101423.44;8029517;28;20121;-68
2021/09/13 03:04:12;;;;;;;3.88;3.08;;;;;;;14.70;55.03;101421.13;8021047;28;20028;-68
2021/09/13 03:08:03;;;;;;;4.63;3.40;;;;;;;14.65;55.06;101420.63;8020284;28;20051;-68
2021/09/13 03:11:55;;;;;;;4.03;3.03;;;;;;;14.61;55.12;101424.44;7997609;28;20453;-69
2021/09/13 03:15:46;;;;;;;5.00;3.05;;;;;;;14.50;55.04;101405.91;8010479;28;20056;-68
2021/09/13 03:19:37;;;;;;;3.15;2.75;;;;;;;14.53;54.91;101407.47;8015906;28;20033;-68
2021/09/13 03:23:30;;;;;;;3.65;3.17;;;;;;;14.45;54.88;101402.75;8021077;28;20362;-69
2021/09/13 03:27:22;;;;;;;4.82;2.80;;;;;;;14.40;55.05;101396.91;8015162;28;20124;-68
2021/09/13 03:31:13;;;;;;;4.20;2.92;;;;;;;14.38;55.00;101410.22;8026680;28;20029;-69
2021/09/13 03:35:04;;;;;;;3.85;2.70;;;;;;;14.34;54.77;101408.78;8024932;28;20066;-69
2021/09/13 03:38:55;;;;;;;4.15;2.97;;;;;;;14.27;55.01;101404.06;8023276;28;20033;-68
2021/09/13 03:42:46;;;;;;;5.55;3.35;;;;;;;14.26;54.99;101405.84;8006650;28;20048;-69
2021/09/13 03:46:37;;;;;;;2.72;2.53;;;;;;;14.22;55.23;101404.38;8027636;28;20114;-69
2021/09/13 03:50:46;;;;;;;3.85;2.63;;;;;;;14.17;54.91;101406.50;8015357;28;20033;-68
2021/09/13 03:54:38;;;;;;;3.97;3.08;;;;;;;14.13;54.95;101412.97;8015435;28;20118;-68
2021/09/13 03:58:30;;;;;;;9.75;2.53;;;;;;;14.10;54.89;101415.84;8021485;28;20437;-68
2021/09/13 04:02:21;;;;;;;4.28;2.90;;;;;;;14.06;54.99;101414.38;8021160;28;20054;-68
2021/09/13 04:06:26;;;;;;;4.97;3.10;;;;;;;14.02;55.11;101409.44;8019141;28;20029;-68
2021/09/13 04:11:02;;;;;;;6.32;2.78;;;;;;;13.97;54.87;101419.47;8011216;28;20695;-68
2021/09/13 04:15:11;;;;;;;2.75;2.28;;;;;;;13.84;55.05;101403.69;8021634;28;20027;-69
2021/09/13 04:19:22;;;;;;;6.82;3.22;;;;;;;13.82;54.90;101422.28;8019939;28;20029;-68
2021/09/13 04:23:28;;;;;;;3.70;2.58;;;;;;;13.81;55.14;101422.38;8003778;28;20457;-68
2021/09/13 04:27:33;;;;;;;4.03;2.72;;;;;;;13.80;55.27;101428.63;8023235;28;20152;-69
2021/09/13 04:31:54;;;;;;;6.93;3.03;;;;;;;13.75;55.01;101433.38;8026458;28;20040;-68
2021/09/13 04:36:10;;;;;;;3.38;2.58;;;;;;;13.71;54.90;101430.13;8024180;28;20400;-68
2021/09/13 04:40:14;;;;;;;5.63;2.90;;;;;;;13.69;55.02;101439.06;8025100;28;20051;-68
2021/09/13 04:44:21;;;;;;;3.38;3.00;;;;;;;13.60;54.75;101426.50;8019248;28;20036;-68
2021/09/13 04:48:34;;;;;;;3.80;2.88;;;;;;;13.60;54.85;101430.00;7998852;28;20037;-68
2021/09/13 04:52:43;;;;;;;2.88;2.60;;;;;;;13.57;55.18;101432.03;8024908;28;20032;-68
2021/09/13 04:56:34;;;;;;;4.13;3.08;;;;;;;13.54;55.16;101435.72;7998004;28;20045;-68
2021/09/13 05:00:26;;;;;;;3.92;2.95;;;;;;;13.42;54.84;101429.47;8011669;28;20575;-68
2021/09/13 05:04:17;;;;;;;3.65;3.08;;;;;;;13.45;55.04;101433.69;8027874;28;20082;-68
2021/09/13 05:08:10;;;;;;;4.63;3.20;;;;;;;13.47;54.98;101437.06;8019515;28;20495;-68
2021/09/13 05:12:00;;;;;;;4.40;2.85;;;;;;;13.43;54.96;101431.16;7997488;28;20515;-68
2021/09/13 05:15:52;;;;;;;3.28;2.60;;;;;;;13.43;55.18;101432.94;8005347;28;20037;-68
2021/09/13 05:19:42;;;;;;;7.93;3.00;;;;;;;13.41;55.17;101433.06;8024252;28;20032;-68
2021/09/13 05:23:33;;;;;;;6.32;3.97;;;;;;;13.41;54.73;101440.13;8006527;28;20044;-67
2021/09/13 05:27:24;;;;;;;4.15;3.13;;;;;;;13.37;55.12;101433.38;8005184;28;20037;-67
2021/09/13 05:31:17;;;;;;;5.32;3.28;;;;;;;13.36;55.29;101435.16;8017303;28;20036;-68
2021/09/13 05:35:08;;;;;;;5.28;2.95;;;;;;;13.39;55.24;101444.66;8029484;28;20036;-68
2021/09/13 05:38:59;;;;;;;3.80;3.30;;;;;;;13.40;55.36;101441.06;8017850;28;20028;-67
2021/09/13 05:43:07;;;;;;;4.57;2.92;;;;;;;13.40;55.54;101447.19;8006125;28;20043;-68
2021/09/13 05:46:59;;;;;;;5.93;3.45;;;;;;;13.36;55.43;101435.16;8008952;28;20408;-68
2021/09/13 05:50:50;;;;;;;3.65;2.85;;;;;;;13.41;55.32;101440.13;8002810;28;20494;-68
2021/09/13 05:54:45;;;;;;;4.57;3.20;;;;;;;13.48;55.58;101451.09;7996466;28;20113;-68
2021/09/13 05:58:36;;;;;;;3.92;2.95;;;;;;;13.55;55.68;101461.19;8000098;28;20036;-68
2021/09/13 06:02:28;;;;;;;3.72;3.00;;;;;;;13.60;55.73;101459.03;8019660;28;20071;-67
2021/09/13 06:06:24;;;;;;;2.97;2.65;;;;;;;13.66;55.74;101469.19;8007427;28;20493;-68
2021/09/13 06:10:18;;;;;;;3.88;3.22;;;;;;;13.76;56.04;101470.22;7993822;28;20556;-68
2021/09/13 06:14:09;;;;;;;4.00;3.13;;;;;;;13.86;55.74;101468.63;8005995;28;20035;-67
2021/09/13 06:18:00;;;;;;;4.47;2.90;;;;;;;13.95;56.13;101471.59;8020916;28;20039;-68
2021/09/13 06:21:50;;;;;;;4.88;2.53;;;;;;;14.05;56.27;101475.28;8022979;28;20028;-67
2021/09/13 06:25:42;;;;;;;4.30;3.35;;;;;;;14.10;56.16;101471.31;8006882;28;20487;-68
2021/09/13 06:29:34;;;;;;;4.90;3.22;;;;;;;14.16;56.34;101481.47;8000543;28;20037;-68
2021/09/13 06:33:28;;;;;;;5.30;3.05;;;;;;;14.29;56.32;101481.44;8014627;28;20037;-68
2021/09/13 06:37:21;;;;;;;4.80;3.38;;;;;;;14.53;56.38;101484.13;8003536;28;20128;-68
2021/09/13 06:41:13;;;;;;;6.82;3.72;;;;;;;14.81;56.48;101481.97;8013276;28;20025;-68
2021/09/13 06:45:19;;;;;;;8.27;3.88;;;;;;;15.28;56.59;101485.50;8030085;28;20038;-68
2021/09/13 06:49:11;;;;;;;4.65;4.00;;;;;;;15.86;56.75;101476.56;8019239;28;20496;-68
2021/09/13 06:53:01;;;;;;;6.72;3.92;;;;;;;16.39;56.51;101490.03;8018118;28;20024;-67
2021/09/13 06:56:55;;;;;;;6.18;4.40;;;;;;;16.77;56.21;101495.72;8016052;28;20094;-68
2021/09/13 07:00:46;;;;;;;5.50;3.72;;;;;;;16.95;55.79;101480.94;8017207;28;20035;-68
2021/09/13 07:04:36;;;;;;;5.78;3.60;;;;;;;17.03;55.28;101472.34;8024589;28;20059;-68
2021/09/13 07:08:27;;;;;;;5.47;3.85;;;;;;;17.12;55.19;101484.84;8028393;28;20770;-68
2021/09/13 07:12:19;;;;;;;5.68;3.63;;;;;;;17.16;54.82;101488.06;7972806;28;20035;-69
2021/09/13 07:16:10;;;;;;;5.50;4.05;;;;;;;17.19;54.85;101491.34;7989818;28;20504;-69
2021/09/13 07:20:00;;;;;;;4.43;3.30;;;;;;;17.17;54.84;101468.50;7996418;28;20025;-68
2021/09/13 07:23:51;;;;;;;5.78;3.75;;;;;;;17.30;54.65;101490.41;8011119;28;20029;-68
2021/09/13 07:27:42;;;;;;;8.15;4.15;;;;;;;17.41;55.31;101485.88;8008311;28;20124;-68
2021/09/13 07:31:33;;;;;;;4.53;3.50;;;;;;;17.53;54.94;101497.25;7998688;28;20029;-68
2021/09/13 07:35:24;;;;;;;7.60;3.83;;;;;;;17.67;54.82;101496.06;7998513;28;20479;-69
2021/09/13 07:39:15;;;;;;;6.43;3.90;;;;;;;17.72;54.51;101484.13;7995675;28;20021;-69
2021/09/13 07:43:06;;;;;;;3.92;2.60;;;;;;;17.83;54.74;101493.81;8011687;28;20040;-69
2021/09/13 07:46:56;;;;;;;3.25;2.70;;;;;;;17.98;54.51;101490.63;8015270;28;20477;-69
2021/09/13 07:50:47;;;;;;;5.45;3.30;;;;;;;18.08;54.37;101490.69;8012393;28;20037;-69
2021/09/13 07:54:38;;;;;;;6.93;3.03;;;;;;;18.28;54.42;101492.41;8014252;28;20033;-69
2021/09/13 07:58:29;;;;;;;8.90;3.83;;;;;;;18.61;54.02;101485.94;8018406;28;20029;-69
2021/09/13 08:02:19;;;;;;;5.10;3.13;;;;;;;19.05;53.69;101492.53;8014656;28;20036;-69
2021/09/13 08:06:10;;;;;;;8.85;4.10;;;;;;;19.51;53.66;101481.13;8012747;28;20024;-69
2021/09/13 08:10:01;;;;;;;6.00;4.00;;;;;;;19.89;53.05;101487.34;8012400;28;20025;-69
2021/09/13 08:13:52;;;;;;;4.35;3.28;;;;;;;20.21;52.98;101493.06;8001077;28;20039;-69
2021/09/13 08:17:44;;;;;;;6.10;3.40;;;;;;;20.44;53.05;101496.97;8000999;28;20389;-69
2021/09/13 08:21:40;;;;;;;7.97;4.00;;;;;;;20.56;52.92;101501.16;8009684;28;20045;-69
2021/09/13 08:25:31;;;;;;;9.23;5.03;;;;;;;20.66;52.84;101501.94;8011040;28;20582;-69
2021/09/13 08:29:48;;;;;;;8.20;4.68;;;;;;;20.79;52.61;101504.22;7993602;28;20041;-69
2021/09/13 08:33:39;;;;;;;7.13;4.55;;;;;;;20.93;52.63;101513.50;8000802;28;20397;-69
2021/09/13 08:37:29;;;;;;;7.38;4.65;;;;;;;20.90;52.16;101519.16;8020115;28;20024;-69
2021/09/13 08:41:20;;;;;;;12.93;6.38;;;;;;;20.71;51.61;101531.69;8010945;28;20051;-69
2021/09/13 08:45:13;;;;;;;11.30;6.15;;;;;;;20.52;51.21;101534.44;8008840;28;20028;-69
2021/09/13 08:49:48;;;;;;;9.40;6.53;;;;;;;20.39;51.23;101533.94;8008901;28;20028;-69
2021/09/13 08:53:26;;;;;;;10.45;6.95;;;;;;;20.23;51.19;101533.75;8002432;28;20041;-69
2021/09/13 08:57:19;;;;;;;13.77;7.60;;;;;;;20.09;51.31;101523.59;7997067;28;20585;-69
2021/09/13 09:01:13;;;;;;;13.60;8.40;;;;;;;20.09;51.49;101529.78;8001226;28;20091;-69
2021/09/13 09:05:04;;;;;;;12.02;8.07;;;;;;;20.15;51.63;101534.50;8003522;28;20040;-69
2021/09/13 09:09:00;;;;;;;16.85;8.60;;;;;;;20.13;51.65;101539.16;7997716;28;20085;-69
2021/09/13 09:13:15;;;;;;;16.95;9.15;;;;;;;20.09;51.39;101543.09;8000014;28;20079;-69
2021/09/13 09:17:13;;;;;;;13.30;9.50;;;;;;;20.00;51.30;101537.81;8015314;28;20040;-69
2021/09/13 09:21:05;;;;;;;19.83;8.77;;;;;;;19.93;51.36;101539.38;8015149;28;20028;-69
2021/09/13 09:24:57;;;;;;;18.13;7.85;;;;;;;19.84;50.92;101525.06;8008612;28;20037;-68
2021/09/13 09:28:48;;;;;;;10.77;6.82;;;;;;;19.77;51.02;101534.59;8011905;28;20036;-68
2021/09/13 09:32:41;;;;;;;10.52;6.72;;;;;;;19.66;51.08;101524.13;8019983;28;20681;-67
2021/09/13 09:36:32;;;;;;;14.35;7.82;;;;;;;19.54;51.12;101526.13;8022858;28;20040;-69
2021/09/13 09:40:29;;;;;;;10.98;6.13;;;;;;;19.49;50.98;101523.06;8011006;28;20032;-68
2021/09/13 09:44:21;;;;;;;7.90;5.32;;;;;;;19.47;50.92;101524.19;8010007;28;20021;-68
2021/09/13 09:48:13;;;;;;;9.82;6.55;;;;;;;19.48;50.97;101517.84;8015619;28;20056;-68
2021/09/13 09:52:04;;;;;;;13.32;6.15;;;;;;;19.49;51.31;101514.22;8012960;28;20033;-68
2021/09/13 09:56:11;;;;;;;9.05;5.50;;;;;;;19.44;51.06;101509.31;8005608;28;20029;-67
2021/09/13 10:00:23;;;;;;;13.50;5.40;;;;;;;19.43;51.14;101514.81;8006341;28;20567;-68
2021/09/13 10:04:22;;;;;;;8.32;5.07;;;;;;;19.48;50.68;101507.19;8015081;28;20441;-67
2021/09/13 10:08:12;;;;;;;9.13;5.13;;;;;;;19.49;50.86;101504.41;8014347;28;20132;-68
2021/09/13 10:12:06;;;;;;;5.15;3.78;;;;;;;19.53;50.96;101502.28;8014504;28;20392;-68
2021/09/13 10:15:57;;;;;;;8.00;4.40;;;;;;;19.59;50.80;101501.72;8010072;28;20036;-69
2021/09/13 10:19:48;;;;;;;9.13;5.72;;;;;;;19.63;50.73;101501.28;7997994;28;20037;-67
2021/09/13 10:23:39;;;;;;;11.13;4.38;;;;;;;19.68;50.67;101500.84;8024934;28;20032;-68
2021/09/13 10:27:35;;;;;;;7.80;4.65;;;;;;;19.70;50.50;101498.88;8016689;28;20071;-68
2021/09/13 10:31:47;;;;;;;7.45;3.35;;;;;;;19.70;50.33;101491.72;8020973;28;20829;-68
2021/09/13 10:35:57;;;;;;;7.55;4.78;;;;;;;19.73;50.65;101491.41;7994660;28;20071;-67
2021/09/13 10:40:03;;;;;;;5.22;3.90;;;;;;;19.79;50.27;101487.34;7997845;28;20041;-68
2021/09/13 10:44:03;;;;;;;7.47;3.33;;;;;;;19.79;50.51;101477.50;8007439;28;20120;-68
2021/09/13 10:47:54;;;;;;;9.60;3.63;;;;;;;19.85;50.11;101478.75;8007260;28;20449;-68
2021/09/13 10:52:23;;;;;;;5.78;3.08;;;;;;;19.86;50.35;101471.63;8017895;28;20040;-67
2021/09/13 10:56:24;;;;;;;6.78;3.35;;;;;;;19.94;50.39;101469.03;8009843;28;20029;-68
2021/09/13 11:00:14;;;;;;;8.27;3.58;;;;;;;20.00;50.06;101463.13;8008990;28;20029;-68
2021/09/13 11:04:06;;;;;;;8.85;3.60;;;;;;;20.06;49.82;101466.03;8002890;28;20029;-67
2021/09/13 11:08:22;;;;;;;4.65;2.75;;;;;;;20.13;49.56;101474.28;8018652;28;20065;-68
2021/09/13 11:12:20;;;;;;;6.20;3.08;;;;;;;20.22;49.52;101476.03;8016596;28;20043;-68
2021/09/13 11:16:15;;;;;;;;;;;;;;;20.10;50.34;101478.09;8015746;28;20031;-68
2021/09/13 11:20:06;;;;;;;4.82;2.72;;;;;;;20.27;49.65;101473.78;8019371;28;20343;-68
2021/09/13 11:23:59;;;;;;;7.18;3.20;;;;;;;20.30;49.39;101459.31;8004224;28;20029;-68
2021/09/13 11:28:00;;;;;;;7.68;2.85;;;;;;;20.26;48.79;101461.44;8007537;28;20040;-67
2021/09/13 11:31:55;;;;;;;3.83;2.22;;;;;;;20.27;49.02;101457.78;8012399;28;20505;-68
2021/09/13 11:35:46;;;;;;;4.50;2.88;;;;;;;20.28;49.21;101457.63;8012485;28;20041;-68
2021/09/13 11:39:42;;;;;;;6.63;3.75;;;;;;;20.28;48.84;101452.28;8009222;28;20033;-68
2021/09/13 11:43:34;;;;;;;2.80;2.28;;;;;;;20.28;48.48;101449.63;8009417;28;20048;-68
2021/09/13 11:47:31;;;;;;;3.97;2.25;;;;;;;20.29;48.21;101442.47;8012247;28;20025;-68
2021/09/13 11:51:21;;;;;;;13.02;4.00;;;;;;;20.32;48.21;101435.97;8014220;28;20485;-69
2021/09/13 11:55:16;;;;;;;7.78;3.28;;;;;;;20.30;47.99;101438.81;8006617;28;20033;-68
2021/09/13 11:59:21;;;;;;;5.80;3.10;;;;;;;20.24;47.72;101434.91;8013875;28;20033;-68
2021/09/13 12:03:11;;;;;;;5.93;2.63;;;;;;;20.22;47.89;101433.38;8003164;28;20043;-68
2021/09/13 12:07:08;;;;;;;5.93;2.85;;;;;;;20.19;47.88;101433.66;8015372;28;20041;-67
2021/09/13 12:11:00;;;;;;;7.07;3.28;;;;;;;20.17;47.59;101430.34;8020741;28;20033;-67
2021/09/13 12:14:54;;;;;;;3.22;2.70;;;;;;;20.12;47.82;101424.59;8008152;28;20029;-68
2021/09/13 12:18:45;;;;;;;5.47;2.80;;;;;;;20.12;47.69;101424.59;7997505;28;20406;-68
2021/09/13 12:22:36;;;;;;;5.82;2.90;;;;;;;20.09;47.66;101430.25;8014883;28;20036;-68
2021/09/13 12:26:26;;;;;;;3.03;2.30;;;;;;;20.06;47.30;101431.38;8022719;28;20033;-68
2021/09/13 12:30:26;;;;;;;3.55;2.40;;;;;;;20.03;47.52;101423.66;7999210;28;20039;-67
2021/09/13 12:34:16;;;;;;;2.95;2.28;;;;;;;20.02;47.49;101415.81;8011114;28;20033;-68
2021/09/13 12:38:12;;;;;;;4.47;3.05;;;;;;;20.01;46.94;101403.50;8009632;28;20025;-68
2021/09/13 12:42:26;;;;;;;4.22;2.45;;;;;;;19.98;47.04;101398.44;8005544;28;20037;-68
2021/09/13 12:46:18;;;;;;;7.05;2.65;;;;;;;20.01;47.36;101396.31;8005594;28;20045;-68
2021/09/13 12:50:09;;;;;;;9.07;3.45;;;;;;;20.02;47.06;101381.13;8007863;28;20104;-68
2021/09/13 12:54:04;;;;;;;7.32;4.07;;;;;;;20.03;46.78;101389.00;8023368;28;20033;-68
2021/09/13 12:57:55;;;;;;;5.05;3.38;;;;;;;20.05;46.71;101379.03;8024602;28;20029;-68
2021/09/13 13:01:50;;;;;;;9.90;3.22;;;;;;;20.08;47.03;101369.88;8017149;28;20033;-68
2021/09/13 13:05:53;;;;;;;5.75;2.38;;;;;;;20.06;47.16;101370.03;8019748;28;20028;-68
2021/09/13 13:09:45;;;;;;;6.07;3.55;;;;;;;20.11;47.06;101369.56;8018935;28;20031;-66
2021/09/13 13:13:36;;;;;;;6.22;2.97;;;;;;;20.13;46.91;101362.28;8017750;28;20041;-68
2021/09/13 13:17:32;;;;;;;7.95;4.07;;;;;;;20.12;46.62;101356.09;8012220;28;20146;-68
2021/09/13 13:21:23;;;;;;;8.35;3.10;;;;;;;20.14;47.07;101359.44;8004147;28;20102;-67
2021/09/13 13:25:14;;;;;;;6.55;3.42;;;;;;;20.21;46.84;101346.34;8007580;28;20443;-68
2021/09/13 13:29:06;;;;;;;11.13;3.65;;;;;;;20.22;46.58;101351.50;8006809;28;20047;-68
2021/09/13 13:32:57;;;;;;;5.65;3.40;;;;;;;20.22;46.55;101345.34;8009963;28;20029;-68
2021/09/13 13:36:47;;;;;;;3.97;3.30;;;;;;;20.23;46.23;101344.34;8015961;28;20045;-68
2021/09/13 13:40:39;;;;;;;6.68;3.58;;;;;;;20.23;46.63;101336.34;8013832;28;20025;-68
2021/09/13 13:44:29;;;;;;;4.93;3.08;;;;;;;20.23;46.56;101339.00;8014222;28;20067;-68
2021/09/13 13:48:20;;;;;;;3.20;2.47;;;;;;;20.23;46.50;101337.19;8020242;28;20025;-68
2021/09/13 13:52:11;;;;;;;3.17;1.98;;;;;;;20.28;46.52;101332.25;8010553;28;20028;-67
2021/09/13 13:56:01;;;;;;;8.43;2.92;;;;;;;20.26;45.91;101326.22;8013185;28;20115;-68
2021/09/13 13:59:53;;;;;;;3.70;2.15;;;;;;;20.29;46.23;101319.75;8009929;28;20680;-68
2021/09/13 14:03:44;;;;;;;3.55;2.38;;;;;;;20.33;45.95;101326.44;8017413;28;20119;-68
2021/09/13 14:07:34;;;;;;;3.78;2.20;;;;;;;20.32;46.26;101327.44;8013773;28;20044;-68
2021/09/13 14:11:25;;;;;;;3.38;2.10;;;;;;;20.34;46.10;101316.63;8004832;28;20082;-68
2021/09/13 14:15:17;;;;;;;3.08;2.40;;;;;;;20.39;45.84;101323.16;8008511;28;20108;-68
2021/09/13 14:19:07;;;;;;;9.82;3.05;;;;;;;20.39;45.55;101319.63;8010362;28;20028;-68
2021/09/13 14:22:58;;;;;;;5.05;2.78;;;;;;;20.35;45.75;101313.78;8001820;28;20029;-68
2021/09/13 14:26:48;;;;;;;3.40;2.33;;;;;;;20.34;45.48;101312.13;8001121;28;20036;-68
2021/09/13 14:30:40;;;;;;;5.30;2.20;;;;;;;20.31;45.73;101306.22;8004472;28;20049;-68
2021/09/13 14:34:31;;;;;;;4.55;2.55;;;;;;;20.33;45.67;101313.09;8000331;28;20039;-68
2021/09/13 14:38:21;;;;;;;2.97;2.20;;;;;;;20.34;45.48;101311.28;8019445;28;20024;-68
2021/09/13 14:42:12;;;;;;;6.75;2.92;;;;;;;20.31;45.58;101303.56;8017028;28;20481;-68
2021/09/13 14:46:03;;;;;;;4.55;2.42;;;;;;;20.28;45.61;101308.22;8013527;28;20052;-68
2021/09/13 14:49:54;;;;;;;3.15;2.42;;;;;;;20.27;45.24;101309.22;8015447;28;20028;-68
2021/09/13 14:53:45;;;;;;;5.65;2.72;;;;;;;20.25;45.46;101310.38;8021180;28;20400;-68
2021/09/13 14:57:36;;;;;;;4.22;2.40;;;;;;;20.25;45.39;101315.72;8023131;28;20081;-68
2021/09/13 15:01:27;;;;;;;5.60;2.72;;;;;;;20.21;45.43;101311.69;8016154;28;20055;-69
2021/09/13 15:05:17;;;;;;;4.55;2.67;;;;;;;20.19;45.42;101309.16;8014886;28;20036;-68
2021/09/13 15:09:08;;;;;;;4.65;2.25;;;;;;;20.18;45.34;101311.97;8007565;28;20033;-68
2021/09/13 15:12:59;;;;;;;2.95;2.22;;;;;;;20.15;45.38;101307.78;7988713;28;20370;-68
2021/09/13 15:16:51;;;;;;;5.32;2.35;;;;;;;20.14;45.21;101305.25;8006482;28;20035;-68
2021/09/13 15:20:47;;;;;;;4.30;2.08;;;;;;;20.12;45.36;101297.44;8012752;28;20043;-68
2021/09/13 15:24:38;;;;;;;2.72;2.20;;;;;;;20.11;45.29;101295.75;8011214;28;20037;-68
2021/09/13 15:28:29;;;;;;;5.22;2.72;;;;;;;20.10;45.38;101299.38;8001585;28;20040;-68
2021/09/13 15:32:19;;;;;;;3.15;2.00;;;;;;;20.09;45.56;101295.06;8004385;28;20029;-68
2021/09/13 15:36:10;;;;;;;1.92;1.63;;;;;;;20.09;45.39;101284.41;7997679;28;20040;-68
2021/09/13 15:40:00;;;;;;;4.63;2.00;;;;;;;20.11;45.42;101290.41;7999587;28;20482;-68
2021/09/13 15:43:51;;;;;;;4.13;2.25;;;;;;;20.12;45.09;101280.56;8008110;28;20036;-65
2021/09/13 15:47:42;;;;;;;8.68;2.22;;;;;;;20.11;45.54;101279.75;8012772;28;20605;-65
2021/09/13 15:51:34;;;;;;;5.18;2.13;;;;;;;20.14;45.57;101271.41;8030105;28;20089;-66
2021/09/13 15:55:25;;;;;;;2.28;1.50;;;;;;;20.15;45.48;101273.09;8014374;28;20035;-66
2021/09/13 15:59:16;;;;;;;3.35;1.80;;;;;;;20.17;45.36;101271.13;8021495;28;20028;-66
2021/09/13 16:03:06;;;;;;;3.53;2.08;;;;;;;20.18;45.01;101261.28;8026324;28;20111;-66
2021/09/13 16:06:58;;;;;;;2.95;1.85;;;;;;;20.17;45.17;101273.81;8038022;28;20033;-67
2021/09/13 16:10:49;;;;;;;5.22;2.10;;;;;;;20.16;45.33;101269.44;8015992;28;20043;-67
2021/09/13 16:14:40;;;;;;;2.35;1.70;;;;;;;20.14;45.37;101265.25;8013133;28;20397;-66
2021/09/13 16:18:31;;;;;;;3.13;1.83;;;;;;;20.10;45.03;101267.38;8007864;28;20498;-68
2021/09/13 16:22:21;;;;;;;2.42;1.50;;;;;;;20.07;45.19;101258.88;8007498;28;20033;-66
2021/09/13 16:26:14;;;;;;;2.80;2.17;;;;;;;20.03;45.26;101261.00;8006118;28;20508;-66
2021/09/13 16:30:06;;;;;;;4.38;1.95;;;;;;;19.99;45.44;101262.31;7995855;28;20119;-67
2021/09/13 16:33:56;;;;;;;7.00;2.33;;;;;;;19.94;45.02;101261.06;7995276;28;20111;-66
2021/09/13 16:37:47;;;;;;;3.90;1.92;;;;;;;19.87;45.24;101250.19;7996800;28;20028;-67
2021/09/13 16:41:38;;;;;;;3.25;1.90;;;;;;;19.81;45.47;101246.25;8033438;28;20043;-67
2021/09/13 16:45:28;;;;;;;6.38;2.35;;;;;;;19.75;45.13;101244.22;8023323;28;20781;-67
2021/09/13 16:49:19;;;;;;;4.97;2.00;;;;;;;19.70;45.43;101251.00;7991301;28;20033;-69
2021/09/13 16:53:10;;;;;;;3.00;2.28;;;;;;;19.62;45.43;101237.59;8006766;28;20101;-68
2021/09/13 16:57:01;;;;;;;4.07;1.88;;;;;;;19.55;45.84;101247.19;8007433;28;20064;-67
2021/09/13 17:00:51;;;;;;;6.88;2.50;;;;;;;19.49;45.48;101255.75;8012016;28;20124;-67
2021/09/13 17:04:43;;;;;;;2.05;1.80;;;;;;;19.42;45.54;101247.53;8003694;28;20037;-67
2021/09/13 17:08:34;;;;;;;3.63;2.08;;;;;;;19.34;45.60;101234.97;7995616;28;20033;-67
2021/09/13 17:12:24;;;;;;;2.33;1.70;;;;;;;19.30;46.07;101241.59;8003735;28;20091;-69
2021/09/13 17:16:15;;;;;;;7.68;2.70;;;;;;;19.25;45.96;101243.84;8005720;28;20032;-67
2021/09/13 17:20:06;;;;;;;2.65;2.13;;;;;;;19.19;46.04;101243.59;8003991;28;20029;-68
2021/09/13 17:23:58;;;;;;;2.67;1.80;;;;;;;19.12;46.29;101240.66;8019161;28;20032;-71
2021/09/13 17:27:48;;;;;;;2.75;2.10;;;;;;;19.06;46.44;101225.25;8010346;28;20433;-68
2021/09/13 17:31:41;;;;;;;6.78;2.08;;;;;;;18.93;46.43;101222.94;8017713;28;20633;-68
2021/09/13 17:35:32;;;;;;;3.08;2.03;;;;;;;18.94;46.40;101229.09;8018368;28;20683;-68
2021/09/13 17:39:22;;;;;;;4.47;2.33;;;;;;;18.87;46.16;101228.03;8005987;28;20489;-69
2021/09/13 17:43:13;;;;;;;2.40;1.73;;;;;;;18.75;46.27;101223.88;8012227;28;20038;-68
2021/09/13 17:47:04;;;;;;;8.27;2.50;;;;;;;18.75;46.22;101227.38;8010201;28;20145;-67
2021/09/13 17:50:54;;;;;;;4.35;2.38;;;;;;;18.69;46.67;101232.41;8011123;28;20053;-67
2021/09/13 17:54:45;;;;;;;5.13;2.05;;;;;;;18.61;46.44;101240.28;8012780;28;20064;-67
2021/09/13 17:58:35;;;;;;;2.15;1.63;;;;;;;18.54;46.54;101248.03;8015072;28;20036;-67
2021/09/13 18:02:26;;;;;;;3.28;2.05;;;;;;;18.47;46.53;101246.09;8004145;28;20025;-75
2021/09/13 18:06:18;;;;;;;4.85;2.10;;;;;;;18.39;46.84;101241.44;8005368;28;20044;-73